Time;durP1;ratioP1;P1;durP2;ratioP2;P2;SDS_P1;SDS_P2;PMS_P1;PMS_P2;Temp;Humidity;BMP_temperature;BMP_pressure;BME280_temperature;BME280_humidity;BME280_pressure;Samples;Min_cycle;Max_cycle;Signal;HPM_P1;HPM_P2
2021/09/15 00:01:02;;;;;;;;;;;;;;;15.06;47.82;98925.75;3350117;29;19974;-75
2021/09/15 00:02:42;;;;;;;;;;;;;;;15.07;47.75;98923.88;3350446;29;19981;-75
2021/09/15 00:04:23;;;;;;;;;;;;;;;15.10;47.86;98924.22;3350398;29;19951;-75
2021/09/15 00:06:04;;;;;;;;;;;;;;;15.09;47.65;98905.69;3349799;29;20320;-75
2021/09/15 00:07:45;;;;;;;;;;;;;;;15.11;47.89;98911.63;3349004;29;20497;-75
2021/09/15 00:09:25;;;;;;;;;;;;;;;15.12;47.73;98924.78;3350848;29;19932;-75
2021/09/15 00:11:06;;;;;;;;;;;;;;;15.11;47.70;98912.44;3350158;29;19935;-75
2021/09/15 00:12:47;;;;;;;;;;;;;;;15.09;47.73;98921.78;3350382;29;19944;-75
2021/09/15 00:14:27;;;;;;;;;;;;;;;15.09;48.00;98917.22;3350050;29;19972;-74
2021/09/15 00:16:08;;;;;;;;;;;;;;;15.14;47.83;98914.63;3349963;29;20064;-74
2021/09/15 00:17:48;;;;;;;;;;;;;;;15.20;47.92;98923.56;3350141;29;19935;-74
2021/09/15 00:19:29;;;;;;;;;;;;;;;15.25;47.91;98908.34;3350974;29;19983;-73
2021/09/15 00:21:09;;;;;;;;;;;;;;;15.30;48.04;98917.56;3350142;29;20040;-73
2021/09/15 00:22:50;;;;;;;;;;;;;;;15.31;47.61;98913.78;3350182;29;19971;-73
2021/09/15 00:24:30;;;;;;;;;;;;;;;15.31;47.78;98929.91;3349757;29;20460;-72
2021/09/15 00:26:16;;;;;;;;;;;;;;;15.29;47.60;98921.31;3348972;29;19928;-72
2021/09/15 00:27:56;;;;;;;;;;;;;;;15.26;47.65;98928.78;3346513;29;19928;-73
2021/09/15 00:29:38;;;;;;;;;;;;;;;15.25;47.67;98924.44;3350550;29;19928;-72
2021/09/15 00:31:19;;;;;;;;;;;;;;;15.26;47.85;98919.94;3350288;29;20071;-72
2021/09/15 00:33:00;;;;;;;;;;;;;;;15.28;47.77;98931.22;3348729;29;19961;-72
2021/09/15 00:34:41;;;;;;;;;;;;;;;15.23;47.81;98923.91;3346210;29;19984;-72
2021/09/15 00:36:21;;;;;;;;;;;;;;;15.26;47.74;98931.47;3349856;29;19928;-73
2021/09/15 00:38:02;;;;;;;;;;;;;;;15.25;47.60;98935.19;3348799;29;19932;-73
2021/09/15 00:39:43;;;;;;;;;;;;;;;15.21;47.27;98926.00;3350723;29;19928;-73
2021/09/15 00:41:24;;;;;;;;;;;;;;;15.13;47.72;98934.47;3349936;29;19932;-73
2021/09/15 00:43:04;;;;;;;;;;;;;;;15.10;47.91;98928.75;3348756;29;19960;-74
2021/09/15 00:44:46;;;;;;;;;;;;;;;15.12;47.91;98938.19;3349894;29;19928;-73
2021/09/15 00:46:27;;;;;;;;;;;;;;;15.19;47.80;98941.53;3350401;29;20404;-73
2021/09/15 00:48:07;;;;;;;;;;;;;;;15.21;47.79;98936.75;3349789;29;20443;-73
2021/09/15 00:49:48;;;;;;;;;;;;;;;15.18;47.80;98945.31;3361072;29;20411;-73
2021/09/15 00:51:28;;;;;;;;;;;;;;;15.16;47.94;98936.66;3365137;29;19953;-74
2021/09/15 00:53:09;;;;;;;;;;;;;;;15.12;47.88;98940.06;3364080;29;20314;-73
2021/09/15 00:54:51;;;;;;;;;;;;;;;15.05;48.20;98941.06;3361866;29;19980;-74
2021/09/15 00:56:32;;;;;;;;;;;;;;;15.03;47.99;98935.09;3364952;29;20061;-74
2021/09/15 00:58:13;;;;;;;;;;;;;;;15.07;48.12;98940.00;3363324;29;20384;-73
2021/09/15 00:59:54;;;;;;;;;;;;;;;15.08;48.17;98947.81;3362077;29;19928;-74
2021/09/15 01:01:36;;;;;;;;;;;;;;;15.05;48.09;98941.06;3364815;29;19928;-75
2021/09/15 01:03:17;;;;;;;;;;;;;;;14.98;48.02;98953.81;3362412;29;19927;-74
2021/09/15 01:04:58;;;;;;;;;;;;;;;14.92;48.18;98946.72;3361342;29;19928;-73
2021/09/15 01:06:39;;;;;;;;;;;;;;;14.85;48.15;98942.56;3364820;29;19928;-74
2021/09/15 01:08:23;;;;;;;;;;;;;;;14.83;48.56;98938.25;3364979;29;19927;-74
2021/09/15 01:10:04;;;;;;;;;;;;;;;14.92;48.30;98932.47;3362165;29;19991;-74
2021/09/15 01:11:49;;;;;;;;;;;;;;;14.96;48.34;98939.81;3362114;29;19927;-76
2021/09/15 01:13:52;;;;;;;;;;;;;;;14.97;48.38;98937.94;3363767;29;19928;-75
2021/09/15 01:15:51;;;;;;;;;;;;;;;14.96;48.23;98945.19;3364827;29;20395;-74
2021/09/15 01:17:58;;;;;;;;;;;;;;;14.98;48.40;98947.63;3370763;29;20410;-73
2021/09/15 01:19:57;;;;;;;;;;;;;;;14.99;48.16;98941.19;3363142;29;19986;-74
2021/09/15 01:22:01;;;;;;;;;;;;;;;15.01;48.23;98947.16;3366475;29;19928;-71
2021/09/15 01:24:00;;;;;;;;;;;;;;;15.04;48.34;98946.66;3364750;29;19927;-73
2021/09/15 01:25:58;;;;;;;;;;;;;;;15.03;48.06;98953.91;3363707;29;19952;-75
2021/09/15 01:28:08;;;;;;;;;;;;;;;14.95;48.34;98956.16;3337340;29;19936;-73
2021/09/15 01:29:56;;;;;;;;;;;;;;;14.90;48.34;98950.72;3351837;29;19928;-74
2021/09/15 01:32:00;;;;;;;;;;;;;;;14.89;48.33;98960.59;3350166;29;19932;-74
2021/09/15 01:33:44;;;;;;;;;;;;;;;14.93;48.74;98952.91;3350669;29;20030;-75
2021/09/15 01:35:24;;;;;;;;;;;;;;;14.96;48.55;98955.09;3348636;29;19928;-75
2021/09/15 01:37:05;;;;;;;;;;;;;;;14.99;48.61;98957.28;3335568;29;19984;-76
2021/09/15 01:38:47;;;;;;;;;;;;;;;15.00;48.32;98956.25;3348437;29;19963;-76
2021/09/15 01:40:29;;;;;;;;;;;;;;;14.98;48.29;98951.13;3348388;29;19984;-74
2021/09/15 01:42:10;;;;;;;;;;;;;;;14.96;48.43;98953.22;3347947;29;19999;-74
2021/09/15 01:43:51;;;;;;;;;;;;;;;14.96;48.45;98952.41;3348374;29;20030;-75
2021/09/15 01:45:32;;;;;;;;;;;;;;;14.98;48.48;98950.31;3337932;29;20511;-76
2021/09/15 01:47:13;;;;;;;;;;;;;;;14.95;48.48;98943.56;3345826;29;19960;-76
2021/09/15 01:48:54;;;;;;;;;;;;;;;14.93;48.80;98950.22;3347738;29;20317;-75
2021/09/15 01:50:35;;;;;;;;;;;;;;;14.90;48.80;98948.84;3352565;29;19931;-76
2021/09/15 01:52:16;;;;;;;;;;;;;;;14.88;48.70;98950.13;3348036;29;20080;-76
2021/09/15 01:53:57;;;;;;;;;;;;;;;14.89;48.98;98959.78;3348170;29;19928;-75
2021/09/15 01:55:38;;;;;;;;;;;;;;;14.91;48.92;98946.97;3350252;29;19986;-75
2021/09/15 01:57:35;;;;;;;;;;;;;;;14.98;48.74;98955.69;3350212;29;20265;-74
2021/09/15 01:59:45;;;;;;;;;;;;;;;15.07;48.85;98956.91;3324416;29;20344;-74
2021/09/15 02:01:48;;;;;;;;;;;;;;;15.06;48.71;98960.66;3359704;29;20460;-74
2021/09/15 02:03:52;;;;;;;;;;;;;;;15.01;48.73;98957.88;3363949;29;19928;-75
2021/09/15 02:05:44;;;;;;;;;;;;;;;14.98;48.79;98961.03;3363259;29;19927;-75
2021/09/15 02:07:49;;;;;;;;;;;;;;;14.96;48.77;98960.47;3363392;29;19932;-76
2021/09/15 02:09:52;;;;;;;;;;;;;;;14.95;48.74;98956.97;3363152;29;19932;-74
2021/09/15 02:11:38;;;;;;;;;;;;;;;14.95;48.95;98965.03;3356711;29;19939;-75
2021/09/15 02:13:21;;;;;;;;;;;;;;;14.94;48.94;98970.63;3348013;29;19967;-76
2021/09/15 02:15:01;;;;;;;;;;;;;;;14.90;49.01;98967.63;3347831;29;19944;-75
2021/09/15 02:16:42;;;;;;;;;;;;;;;14.89;48.92;98974.00;3347941;29;19931;-72
2021/09/15 02:18:23;;;;;;;;;;;;;;;14.92;49.28;98972.72;3351555;29;19928;-74
2021/09/15 02:20:22;;;;;;;;;;;;;;;14.95;48.99;98969.59;3351448;29;19935;-74
2021/09/15 02:22:13;;;;;;;;;;;;;;;14.99;49.19;98970.72;3351231;29;19928;-72
2021/09/15 02:23:54;;;;;;;;;;;;;;;15.03;48.98;98969.19;3351356;29;19970;-73
2021/09/15 02:25:50;;;;;;;;;;;;;;;15.07;49.00;98964.94;3349987;29;19928;-73
2021/09/15 02:27:43;;;;;;;;;;;;;;;15.02;48.83;98965.69;3350213;29;20293;-73
2021/09/15 02:29:27;;;;;;;;;;;;;;;14.96;48.92;98976.56;3350311;29;19932;-72
2021/09/15 02:31:30;;;;;;;;;;;;;;;14.90;49.22;98964.94;3350995;29;19928;-73
2021/09/15 02:33:29;;;;;;;;;;;;;;;14.95;49.21;98969.59;3351027;29;20380;-73
2021/09/15 02:35:13;;;;;;;;;;;;;;;15.02;49.14;98981.78;3351220;29;19935;-73
2021/09/15 02:37:06;;;;;;;;;;;;;;;15.02;49.17;98980.97;3350123;29;19928;-73
2021/09/15 02:39:11;;;;;;;;;;;;;;;15.05;49.36;98981.31;3337313;29;19928;-74
2021/09/15 02:41:21;;;;;;;;;;;;;;;15.09;49.14;98981.63;3351980;29;19932;-74
2021/09/15 02:43:12;;;;;;;;;;;;;;;15.05;49.01;98981.31;3363774;29;20386;-74
2021/09/15 02:45:04;;;;;;;;;;;;;;;15.01;48.81;98988.19;3362609;29;19967;-73
2021/09/15 02:46:52;;;;;;;;;;;;;;;14.96;49.30;98982.75;3361431;29;19956;-74
2021/09/15 02:48:51;;;;;;;;;;;;;;;14.87;49.10;98989.56;3363856;29;20059;-74
2021/09/15 02:50:39;;;;;;;;;;;;;;;14.79;49.44;98993.44;3362582;29;19966;-74
2021/09/15 02:52:32;;;;;;;;;;;;;;;14.77;49.41;98995.53;3361660;29;19929;-74
2021/09/15 02:54:31;;;;;;;;;;;;;;;14.76;49.47;98988.53;3362444;29;20065;-75
2021/09/15 02:56:25;;;;;;;;;;;;;;;14.77;49.69;98984.81;3361476;29;19931;-75
2021/09/15 02:58:24;;;;;;;;;;;;;;;14.82;49.64;98987.59;3363742;29;19928;-75
2021/09/15 03:00:13;;;;;;;;;;;;;;;14.82;49.35;98995.66;3349735;29;20448;-75
2021/09/15 03:02:02;;;;;;;;;;;;;;;14.80;49.54;98999.63;3344996;29;20483;-74
2021/09/15 03:04:06;;;;;;;;;;;;;;;14.78;49.56;98991.78;3362296;29;19934;-75
2021/09/15 03:05:57;;;;;;;;;;;;;;;14.80;49.45;99000.44;3362263;29;19928;-74
2021/09/15 03:07:56;;;;;;;;;;;;;;;14.81;49.59;99006.59;3363582;29;19978;-75
2021/09/15 03:09:36;;;;;;;;;;;;;;;14.81;49.59;99004.72;3362312;29;20426;-76
2021/09/15 03:11:20;;;;;;;;;;;;;;;14.82;49.44;99009.06;3359905;29;19934;-76
2021/09/15 03:13:01;;;;;;;;;;;;;;;14.84;49.63;99016.84;3352429;29;19938;-78
2021/09/15 03:14:41;;;;;;;;;;;;;;;14.85;49.64;99007.75;3347090;29;19928;-76
2021/09/15 03:16:24;;;;;;;;;;;;;;;14.86;49.57;99008.56;3347239;29;19978;-78
2021/09/15 03:18:07;;;;;;;;;;;;;;;14.88;49.70;99009.16;3347739;29;19943;-76
2021/09/15 03:19:47;;;;;;;;;;;;;;;14.90;49.83;98999.00;3347082;29;19928;-75
2021/09/15 03:21:28;;;;;;;;;;;;;;;14.90;49.57;98999.00;3347087;29;19928;-76
2021/09/15 03:23:08;;;;;;;;;;;;;;;14.91;49.80;99001.44;3350158;29;20323;-76
2021/09/15 03:24:49;;;;;;;;;;;;;;;14.95;49.65;99001.78;3349600;29;19928;-75
2021/09/15 03:26:30;;;;;;;;;;;;;;;14.91;49.62;99000.63;3350216;29;20357;-75
2021/09/15 03:28:10;;;;;;;;;;;;;;;14.87;49.74;99010.19;3350446;29;19984;-76
2021/09/15 03:29:51;;;;;;;;;;;;;;;14.88;49.74;99006.47;3349277;29;20512;-75
2021/09/15 03:31:31;;;;;;;;;;;;;;;14.90;49.88;99012.41;3346565;29;19932;-75
2021/09/15 03:33:12;;;;;;;;;;;;;;;14.90;49.58;99015.91;3348181;29;19975;-75
2021/09/15 03:34:53;;;;;;;;;;;;;;;14.86;49.80;99011.25;3346824;29;20341;-75
2021/09/15 03:36:34;;;;;;;;;;;;;;;14.76;49.82;99010.00;3350509;29;19984;-75
2021/09/15 03:38:14;;;;;;;;;;;;;;;14.70;49.97;99013.63;3351063;29;20390;-76
2021/09/15 03:39:55;;;;;;;;;;;;;;;14.71;50.05;99012.56;3351923;29;20034;-77
2021/09/15 03:41:36;;;;;;;;;;;;;;;14.69;50.14;99008.50;3352301;29;19928;-75
2021/09/15 03:43:16;;;;;;;;;;;;;;;14.66;49.94;99017.84;3351609;29;19992;-77
2021/09/15 03:44:58;;;;;;;;;;;;;;;14.68;50.06;99018.41;3352212;29;19928;-76
2021/09/15 03:46:39;;;;;;;;;;;;;;;14.67;50.10;99019.47;3354119;29;19928;-76
2021/09/15 03:48:19;;;;;;;;;;;;;;;14.68;50.28;99023.78;3351841;29;19971;-76
2021/09/15 03:50:00;;;;;;;;;;;;;;;14.70;50.09;99024.38;3354222;29;19935;-77
2021/09/15 03:51:41;;;;;;;;;;;;;;;14.72;50.15;99024.94;3354727;29;19980;-77
2021/09/15 03:53:22;;;;;;;;;;;;;;;14.73;50.18;99021.19;3360739;29;19928;-78
2021/09/15 03:55:03;;;;;;;;;;;;;;;14.73;50.09;99031.13;3360842;29;19928;-74
2021/09/15 03:56:44;;;;;;;;;;;;;;;14.73;49.97;99028.44;3360132;29;20034;-74
2021/09/15 03:58:24;;;;;;;;;;;;;;;14.78;50.10;99029.34;3364387;29;19928;-75
2021/09/15 04:00:08;;;;;;;;;;;;;;;14.89;50.09;99032.25;3364658;29;20400;-77
2021/09/15 04:01:53;;;;;;;;;;;;;;;14.93;50.05;99041.44;3351492;29;19928;-75
2021/09/15 04:03:35;;;;;;;;;;;;;;;14.94;50.14;99032.34;3350346;29;19928;-73
2021/09/15 04:05:16;;;;;;;;;;;;;;;14.94;49.90;99043.06;3359376;29;19980;-76
2021/09/15 04:06:56;;;;;;;;;;;;;;;14.99;50.23;99043.97;3359414;29;19984;-74
2021/09/15 04:08:37;;;;;;;;;;;;;;;15.06;50.20;99043.84;3359643;29;19935;-76
2021/09/15 04:10:17;;;;;;;;;;;;;;;15.13;50.04;99052.56;3365739;29;19944;-77
2021/09/15 04:11:58;;;;;;;;;;;;;;;15.13;49.87;99047.22;3368007;29;19935;-78
2021/09/15 04:13:39;;;;;;;;;;;;;;;15.12;50.10;99034.81;3361497;29;20422;-75
2021/09/15 04:15:19;;;;;;;;;;;;;;;15.13;50.00;99041.84;3359403;29;19928;-74
2021/09/15 04:17:00;;;;;;;;;;;;;;;15.10;49.80;99053.06;3359149;29;20463;-74
2021/09/15 04:18:41;;;;;;;;;;;;;;;15.05;49.76;99050.28;3359582;29;19927;-74
2021/09/15 04:20:22;;;;;;;;;;;;;;;14.99;49.87;99052.03;3359282;29;19935;-74
2021/09/15 04:22:03;;;;;;;;;;;;;;;14.95;50.17;99055.44;3361784;29;19935;-74
2021/09/15 04:31:40;;;;;;;;;;;;;;;14.96;50.60;99059.75;3351472;29;19927;-76
2021/09/15 04:33:21;;;;;;;;;;;;;;;14.98;50.64;99058.47;3349327;29;19935;-74
2021/09/15 04:35:02;;;;;;;;;;;;;;;14.96;50.58;99051.69;3351178;29;19944;-78
2021/09/15 04:36:43;;;;;;;;;;;;;;;14.93;50.54;99046.81;3348823;29;20426;-74
2021/09/15 04:38:23;;;;;;;;;;;;;;;14.98;50.58;99055.78;3348937;29;19935;-75
2021/09/15 04:40:05;;;;;;;;;;;;;;;15.05;50.53;99061.81;3348758;29;19928;-75
2021/09/15 04:41:47;;;;;;;;;;;;;;;15.10;50.52;99058.44;3351229;29;19928;-76
2021/09/15 04:43:27;;;;;;;;;;;;;;;15.11;50.54;99065.41;3348451;29;20452;-76
2021/09/15 04:45:08;;;;;;;;;;;;;;;15.11;51.14;99054.69;3349059;29;19935;-76
2021/09/15 04:46:49;;;;;;;;;;;;;;;15.13;50.78;99062.50;3351357;29;20444;-76
2021/09/15 04:48:31;;;;;;;;;;;;;;;15.15;50.50;99053.13;3361093;29;19927;-75
2021/09/15 04:50:12;;;;;;;;;;;;;;;15.23;50.88;99068.88;3364006;29;19934;-74
2021/09/15 04:51:53;;;;;;;;;;;;;;;15.30;50.50;99057.97;3338548;29;19935;-76
2021/09/15 04:53:34;;;;;;;;;;;;;;;15.35;50.54;99068.00;3358470;29;19928;-76
2021/09/15 04:55:16;;;;;;;;;;;;;;;15.36;50.39;99065.09;3354899;29;19928;-75
2021/09/15 04:56:58;;;;;;;;;;;;;;;15.42;50.65;99071.34;3350805;29;20432;-75
2021/09/15 04:58:39;;;;;;;;;;;;;;;15.43;50.51;99067.59;3350978;29;19935;-76
2021/09/15 05:00:20;;;;;;;;;;;;;;;15.45;50.47;99070.88;3351863;29;20014;-76
2021/09/15 05:02:10;;;;;;;;;;;;;;;15.47;50.20;99079.50;3351061;29;20000;-76
2021/09/15 05:03:50;;;;;;;;;;;;;;;15.45;50.35;99086.97;3341039;29;20396;-74
2021/09/15 05:05:34;;;;;;;;;;;;;;;15.37;50.02;99090.06;3347228;29;19928;-73
2021/09/15 05:07:17;;;;;;;;;;;;;;;15.30;50.21;99094.75;3335817;29;20026;-73
2021/09/15 05:08:58;;;;;;;;;;;;;;;15.28;50.36;99086.91;3348587;29;19944;-73
2021/09/15 05:10:39;;;;;;;;;;;;;;;15.32;50.33;99100.69;3348602;29;20343;-72
2021/09/15 05:12:20;;;;;;;;;;;;;;;15.34;50.46;99096.72;3335771;29;19929;-73
2021/09/15 05:14:02;;;;;;;;;;;;;;;15.39;50.21;99104.06;3346202;29;20396;-73
2021/09/15 05:15:43;;;;;;;;;;;;;;;15.41;50.04;99100.09;3348998;29;20011;-72
2021/09/15 05:17:25;;;;;;;;;;;;;;;15.43;50.17;99097.13;3350936;29;19932;-73
2021/09/15 05:19:05;;;;;;;;;;;;;;;15.48;50.18;99102.59;3348213;29;19928;-73
2021/09/15 05:20:46;;;;;;;;;;;;;;;15.43;49.97;99097.94;3348323;29;19928;-71
2021/09/15 05:22:28;;;;;;;;;;;;;;;15.38;50.17;99097.03;3350852;29;19935;-74
2021/09/15 05:24:08;;;;;;;;;;;;;;;15.42;50.16;99098.22;3350767;29;20076;-74
2021/09/15 05:25:49;;;;;;;;;;;;;;;15.43;50.37;99107.88;3351883;29;19993;-77
2021/09/15 05:27:29;;;;;;;;;;;;;;;15.40;50.00;99100.31;3351130;29;20072;-77
2021/09/15 05:29:11;;;;;;;;;;;;;;;15.47;50.26;99104.47;3351981;29;20360;-76
2021/09/15 05:30:52;;;;;;;;;;;;;;;15.52;50.42;99111.00;3350611;29;20368;-74
2021/09/15 05:32:32;;;;;;;;;;;;;;;15.53;50.38;99107.25;3347958;29;19967;-74
2021/09/15 05:34:13;;;;;;;;;;;;;;;15.57;50.54;99105.72;3348186;29;19960;-76
2021/09/15 05:35:53;;;;;;;;;;;;;;;15.58;50.42;99108.16;3350671;29;19935;-75
2021/09/15 05:37:38;;;;;;;;;;;;;;;15.53;50.36;99108.06;3350476;29;19928;-73
2021/09/15 05:39:18;;;;;;;;;;;;;;;15.48;50.36;99110.66;3348313;29;20439;-72
2021/09/15 05:40:59;;;;;;;;;;;;;;;15.47;50.55;99114.41;3351402;29;19928;-73
2021/09/15 05:42:40;;;;;;;;;;;;;;;15.59;50.62;99114.34;3350579;29;20301;-73
2021/09/15 05:44:27;;;;;;;;;;;;;;;15.66;50.45;99110.44;3350678;29;20003;-73
2021/09/15 05:46:08;;;;;;;;;;;;;;;15.66;50.53;99109.63;3351619;29;20368;-75
2021/09/15 05:47:48;;;;;;;;;;;;;;;15.62;50.19;99112.00;3350342;29;20400;-72
2021/09/15 05:49:29;;;;;;;;;;;;;;;15.56;50.19;99120.19;3351280;29;19963;-73
2021/09/15 05:51:09;;;;;;;;;;;;;;;15.46;50.17;99120.81;3351440;29;20484;-73
2021/09/15 05:52:51;;;;;;;;;;;;;;;15.40;50.58;99119.09;3350622;29;19928;-74
2021/09/15 05:54:32;;;;;;;;;;;;;;;15.42;50.48;99117.00;3347845;29;19928;-74
2021/09/15 05:56:13;;;;;;;;;;;;;;;15.46;50.69;99118.97;3350758;29;19927;-73
2021/09/15 05:57:54;;;;;;;;;;;;;;;15.52;50.62;99117.19;3351364;29;19934;-73
2021/09/15 05:59:34;;;;;;;;;;;;;;;15.53;50.46;99126.88;3360089;29;19955;-72
2021/09/15 06:01:15;;;;;;;;;;;;;;;15.53;50.56;99132.25;3355419;29;19971;-72
2021/09/15 06:02:56;;;;;;;;;;;;;;;15.52;50.28;99127.94;3351253;29;19931;-73
2021/09/15 06:04:55;;;;;;;;;;;;;;;15.54;50.54;99133.03;3351401;29;19928;-73
2021/09/15 06:06:43;;;;;;;;;;;;;;;15.63;50.25;99137.81;3351698;29;19927;-73
2021/09/15 06:08:30;;;;;;;;;;;;;;;15.66;50.07;99133.81;3350126;29;19936;-72
2021/09/15 06:10:10;;;;;;;;;;;;;;;15.64;50.04;99141.28;3353795;29;19928;-74
2021/09/15 06:11:51;;;;;;;;;;;;;;;15.63;50.07;99139.69;3347784;29;19928;-75
2021/09/15 06:13:32;;;;;;;;;;;;;;;15.66;50.11;99137.31;3347773;29;19928;-74
2021/09/15 06:15:12;;;;;;;;;;;;;;;15.71;50.13;99144.69;3351238;29;20030;-74
2021/09/15 06:16:59;;;;;;;;;;;;;;;15.76;50.18;99149.34;3350860;29;19928;-72
2021/09/15 06:18:39;;;;;;;;;;;;;;;15.77;50.04;99143.72;3351433;29;19928;-73
2021/09/15 06:20:38;;;;;;;;;;;;;;;15.75;50.21;99145.00;3351142;29;20027;-73
2021/09/15 06:22:30;;;;;;;;;;;;;;;15.81;50.13;99144.06;3360978;29;19927;-72
2021/09/15 06:24:33;;;;;;;;;;;;;;;15.86;49.76;99146.84;3360840;29;19927;-73
2021/09/15 06:26:14;;;;;;;;;;;;;;;15.85;49.67;99151.41;3351573;29;19935;-73
2021/09/15 06:27:55;;;;;;;;;;;;;;;15.85;49.91;99145.19;3359081;29;19929;-72
2021/09/15 06:29:37;;;;;;;;;;;;;;;15.84;50.19;99143.56;3361714;29;19932;-73
2021/09/15 06:31:18;;;;;;;;;;;;;;;15.84;50.09;99149.75;3355587;29;19942;-73
2021/09/15 06:32:59;;;;;;;;;;;;;;;15.82;50.06;99140.31;3337236;29;19928;-72
2021/09/15 06:34:39;;;;;;;;;;;;;;;15.90;49.83;99148.81;3347677;29;19928;-72
2021/09/15 06:36:20;;;;;;;;;;;;;;;15.95;49.75;99150.72;3351668;29;19928;-72
2021/09/15 06:38:00;;;;;;;;;;;;;;;15.91;49.87;99149.59;3350843;29;19932;-72
2021/09/15 06:39:41;;;;;;;;;;;;;;;15.88;49.84;99152.78;3338044;29;19985;-73
2021/09/15 06:41:22;;;;;;;;;;;;;;;15.91;49.92;99152.28;3344794;29;20468;-72
2021/09/15 06:43:03;;;;;;;;;;;;;;;15.98;49.57;99144.91;3350868;29;20319;-73
2021/09/15 06:44:44;;;;;;;;;;;;;;;16.07;49.61;99151.50;3360194;29;20017;-72
2021/09/15 06:46:25;;;;;;;;;;;;;;;16.13;49.39;99147.00;3350205;29;19939;-71
2021/09/15 06:48:05;;;;;;;;;;;;;;;16.14;49.54;99149.47;3350519;29;19951;-72
2021/09/15 06:49:46;;;;;;;;;;;;;;;16.24;49.52;99158.75;3357133;29;19987;-72
2021/09/15 06:51:27;;;;;;;;;;;;;;;16.34;49.25;99151.66;3363128;29;20257;-72
2021/09/15 06:53:07;;;;;;;;;;;;;;;16.35;49.15;99160.53;3357516;29;19928;-74
2021/09/15 06:54:49;;;;;;;;;;;;;;;16.31;49.19;99164.78;3351469;29;19928;-73
2021/09/15 06:56:31;;;;;;;;;;;;;;;16.25;49.22;99165.75;3350587;29;19928;-73
2021/09/15 06:58:14;;;;;;;;;;;;;;;16.16;49.21;99168.06;3349557;29;19928;-72
2021/09/15 06:59:55;;;;;;;;;;;;;;;16.06;49.05;99174.06;3350706;29;20092;-72
2021/09/15 07:01:36;;;;;;;;;;;;;;;16.02;49.32;99162.16;3359782;29;19932;-72
2021/09/15 07:03:16;;;;;;;;;;;;;;;16.01;49.16;99168.59;3357194;29;20342;-73
2021/09/15 07:04:58;;;;;;;;;;;;;;;16.01;49.41;99165.09;3347589;29;19928;-72
2021/09/15 07:06:38;;;;;;;;;;;;;;;15.97;49.66;99169.31;3358701;29;19932;-73
2021/09/15 07:08:19;;;;;;;;;;;;;;;15.94;49.61;99175.19;3360819;29;19982;-72
2021/09/15 07:09:59;;;;;;;;;;;;;;;15.93;49.40;99169.00;3363462;29;19928;-72
2021/09/15 07:11:40;;;;;;;;;;;;;;;15.89;49.46;99168.66;3363657;29;19928;-73
2021/09/15 07:13:20;;;;;;;;;;;;;;;15.87;49.42;99170.75;3352099;29;20392;-71
2021/09/15 07:15:01;;;;;;;;;;;;;;;15.86;49.89;99171.03;3358599;29;20323;-74
2021/09/15 07:16:41;;;;;;;;;;;;;;;15.87;49.53;99165.38;3359805;29;20012;-72
2021/09/15 07:18:22;;;;;;;;;;;;;;;15.86;49.45;99166.44;3353529;29;19931;-72
2021/09/15 07:20:03;;;;;;;;;;;;;;;15.79;49.58;99157.72;3353934;29;19978;-73
2021/09/15 07:21:44;;;;;;;;;;;;;;;15.76;49.81;99165.47;3352626;29;19944;-72
2021/09/15 07:23:25;;;;;;;;;;;;;;;15.78;49.83;99160.66;3362799;29;20022;-72
2021/09/15 07:25:06;;;;;;;;;;;;;;;15.76;49.61;99168.16;3362846;29;20324;-72
2021/09/15 07:26:47;;;;;;;;;;;;;;;15.75;49.61;99167.34;3354868;29;20015;-73
2021/09/15 07:28:28;;;;;;;;;;;;;;;15.74;49.67;99162.19;3350763;29;19978;-73
2021/09/15 07:30:10;;;;;;;;;;;;;;;15.76;49.56;99171.66;3349749;29;19928;-72
2021/09/15 07:31:51;;;;;;;;;;;;;;;15.79;49.43;99170.34;3350249;29;19928;-73
2021/09/15 07:33:32;;;;;;;;;;;;;;;15.81;49.49;99170.94;3351347;29;20300;-73
2021/09/15 07:35:14;;;;;;;;;;;;;;;15.82;49.47;99181.41;3361412;29;20367;-73
2021/09/15 07:36:55;;;;;;;;;;;;;;;15.83;49.41;99179.56;3360049;29;19934;-74
2021/09/15 07:38:37;;;;;;;;;;;;;;;15.83;49.59;99174.19;3361584;29;20372;-72
2021/09/15 07:40:19;;;;;;;;;;;;;;;15.79;49.27;99181.09;3361859;29;19928;-73
2021/09/15 07:42:00;;;;;;;;;;;;;;;15.73;49.32;99184.75;3360751;29;19927;-72
2021/09/15 07:43:41;;;;;;;;;;;;;;;15.65;49.45;99184.06;3361426;29;19966;-72
2021/09/15 07:45:22;;;;;;;;;;;;;;;15.59;49.52;99193.06;3358277;29;19928;-72
2021/09/15 07:47:03;;;;;;;;;;;;;;;15.53;49.50;99191.34;3360776;29;19983;-73
2021/09/15 07:48:43;;;;;;;;;;;;;;;15.48;49.76;99189.34;3361764;29;19928;-74
2021/09/15 07:50:26;;;;;;;;;;;;;;;15.41;49.49;99188.69;3361496;29;20467;-73
2021/09/15 07:52:07;;;;;;;;;;;;;;;15.33;49.77;99189.06;3361636;29;20320;-72
2021/09/15 07:53:47;;;;;;;;;;;;;;;15.27;49.92;99188.13;3361945;29;20083;-73
2021/09/15 07:55:31;;;;;;;;;;;;;;;15.22;49.81;99195.28;3362713;29;19934;-72
2021/09/15 07:57:12;;;;;;;;;;;;;;;15.20;49.87;99194.69;3364219;29;19928;-72
2021/09/15 07:58:53;;;;;;;;;;;;;;;15.14;49.95;99203.69;3360905;29;19928;-72
2021/09/15 08:00:33;;;;;;;;;;;;;;;15.11;49.94;99205.00;3360504;29;20388;-73
2021/09/15 08:02:14;;;;;;;;;;;;;;;15.08;50.19;99197.41;3361621;29;19974;-71
2021/09/15 08:03:57;;;;;;;;;;;;;;;15.08;50.13;99204.66;3361216;29;20399;-73
2021/09/15 08:05:39;;;;;;;;;;;;;;;15.09;50.07;99211.66;3361036;29;19932;-73
2021/09/15 08:07:21;;;;;;;;;;;;;;;15.09;49.97;99207.09;3357765;29;19970;-71
2021/09/15 08:09:03;;;;;;;;;;;;;;;15.11;50.05;99212.22;3357172;29;20453;-72
2021/09/15 08:10:44;;;;;;;;;;;;;;;15.11;49.95;99209.53;3356448;29;19967;-73
2021/09/15 08:12:24;;;;;;;;;;;;;;;15.07;50.03;99205.69;3354534;29;19928;-73
2021/09/15 08:14:05;;;;;;;;;;;;;;;15.05;49.96;99206.75;3356637;29;19987;-71
2021/09/15 08:15:45;;;;;;;;;;;;;;;15.08;50.01;99205.47;3353424;29;19928;-72
2021/09/15 08:17:26;;;;;;;;;;;;;;;15.07;50.13;99209.19;3355159;29;19928;-71
2021/09/15 08:19:06;;;;;;;;;;;;;;;15.06;50.22;99212.94;3356894;29;19951;-73
2021/09/15 08:20:47;;;;;;;;;;;;;;;15.07;50.03;99211.06;3355762;29;19928;-72
2021/09/15 08:22:28;;;;;;;;;;;;;;;15.11;49.97;99205.00;3355650;29;19983;-71
2021/09/15 08:24:08;;;;;;;;;;;;;;;15.15;50.18;99216.88;3352095;29;19971;-71
2021/09/15 08:25:49;;;;;;;;;;;;;;;15.18;49.96;99218.25;3356446;29;19928;-71
2021/09/15 08:27:31;;;;;;;;;;;;;;;15.19;49.79;99225.28;3354351;29;19927;-71
2021/09/15 08:29:11;;;;;;;;;;;;;;;15.16;49.85;99223.88;3354948;29;19928;-72
2021/09/15 08:30:52;;;;;;;;;;;;;;;15.15;49.96;99219.56;3355335;29;19945;-71
2021/09/15 08:32:32;;;;;;;;;;;;;;;15.16;50.10;99231.13;3356128;29;19935;-72
2021/09/15 08:34:13;;;;;;;;;;;;;;;15.14;49.69;99225.19;3354687;29;19946;-70
2021/09/15 08:35:53;;;;;;;;;;;;;;;15.11;50.02;99226.47;3354833;29;20407;-71
2021/09/15 08:37:34;;;;;;;;;;;;;;;15.10;49.70;99224.00;3354247;29;19927;-72
2021/09/15 08:39:16;;;;;;;;;;;;;;;15.10;49.89;99230.22;3355971;29;19951;-71
2021/09/15 08:40:58;;;;;;;;;;;;;;;15.09;50.17;99230.44;3355336;29;19939;-71
2021/09/15 08:42:38;;;;;;;;;;;;;;;15.07;49.96;99236.03;3355214;29;19931;-73
2021/09/15 08:44:19;;;;;;;;;;;;;;;15.02;49.70;99235.91;3355164;29;20230;-72
2021/09/15 08:46:01;;;;;;;;;;;;;;;15.01;50.11;99243.16;3355738;29;19927;-71
2021/09/15 08:47:43;;;;;;;;;;;;;;;14.99;49.96;99249.81;3351147;29;19984;-71
2021/09/15 08:49:24;;;;;;;;;;;;;;;14.97;50.12;99244.69;3347180;29;19928;-73
2021/09/15 08:51:05;;;;;;;;;;;;;;;14.99;50.14;99249.81;3345902;29;19935;-72
2021/09/15 08:52:45;;;;;;;;;;;;;;;15.04;50.36;99248.03;3346031;29;19963;-74
2021/09/15 08:54:26;;;;;;;;;;;;;;;15.14;50.37;99247.47;3359880;29;19928;-76
2021/09/15 08:56:07;;;;;;;;;;;;;;;15.19;50.40;99250.25;3348715;29;19932;-75
2021/09/15 08:57:47;;;;;;;;;;;;;;;15.25;50.51;99254.66;3352480;29;19950;-75
2021/09/15 08:59:28;;;;;;;;;;;;;;;15.34;50.38;99259.69;3350803;29;19935;-74
2021/09/15 09:01:13;;;;;;;;;;;;;;;15.36;50.61;99254.88;3349571;29;20324;-75
2021/09/15 09:02:53;;;;;;;;;;;;;;;15.39;50.15;99259.81;3348705;29;19929;-76
2021/09/15 09:04:55;;;;;;;;;;;;;;;15.41;50.07;99257.69;3350036;29;20353;-75
2021/09/15 09:06:35;;;;;;;;;;;;;;;15.54;50.26;99259.28;3352940;29;19967;-75
2021/09/15 09:08:23;;;;;;;;;;;;;;;15.65;50.38;99264.66;3355019;29;19939;-75